Monson, Massachusetts
Current Conditions -  °F | °C
As of 12:58 PM on Monday 24 Nov 2014 (Local Time) from KCEF Reporting Station
Broken Clouds Broken Clouds  
Wind Chill: 64°   Ceiling: 1200
Heat Index: 64°   Visibility: 10mi
Dew Point: 60°   Wind: 14mph
Humidity: 87%   Direction: 200°SSW
Pressure: 29.59"   Gusts: NA
Location:  42.1°N, 72.32°W
Report Text: KCEF 241758Z 20012KT 10SM BKN012 BKN050 18/16 A2959 RMK AO2A SLP026 60021 T01790158 10179 20148
Loading
Personal Weather Stations






























Interactive Weather Map New forecast layout! Learn more

10-Day Weather Forecast

Advertisements
Track Severe Weather on mobile